Time;durP1;ratioP1;P1;durP2;ratioP2;P2;SDS_P1;SDS_P2;PMS_P1;PMS_P2;Temp;Humidity;BMP_temperature;BMP_pressure;BME280_temperature;BME280_humidity;BME280_pressure;Samples;Min_cycle;Max_cycle;Signal;HPM_P1;HPM_P2
2023/07/12 00:01:46;;;;;;;9.00;3.40;;;24.90;75.50;;;;;;5101677;28;20476;-81
2023/07/12 00:04:13;;;;;;;5.57;2.73;;;24.90;75.40;;;;;;5105558;27;20540;-82
2023/07/12 00:06:43;;;;;;;7.17;3.40;;;24.90;75.60;;;;;;5103982;28;20872;-81
2023/07/12 00:09:13;;;;;;;8.30;3.40;;;24.90;75.70;;;;;;5102806;28;21310;-82
2023/07/12 00:11:44;;;;;;;7.10;3.20;;;24.90;75.60;;;;;;5100423;27;21067;-82
2023/07/12 00:14:11;;;;;;;8.73;3.93;;;24.90;75.60;;;;;;5096708;28;20540;-82
2023/07/12 00:16:41;;;;;;;6.53;3.60;;;24.80;75.60;;;;;;5108576;28;20456;-82
2023/07/12 00:19:14;;;;;;;8.50;3.10;;;24.80;75.60;;;;;;5118139;27;20456;-82
2023/07/12 00:21:45;;;;;;;11.50;4.10;;;24.70;75.70;;;;;;5108586;27;20456;-81
2023/07/12 00:24:16;;;;;;;9.57;3.30;;;24.60;75.70;;;;;;5103511;27;20671;-81
2023/07/12 00:26:44;;;;;;;7.30;3.43;;;24.60;75.80;;;;;;5100311;28;20452;-83
2023/07/12 00:29:12;;;;;;;7.17;3.30;;;24.40;75.90;;;;;;5096504;28;20547;-81
2023/07/12 00:31:42;;;;;;;10.97;4.10;;;24.40;75.90;;;;;;5102763;28;20480;-82
2023/07/12 00:34:10;;;;;;;7.23;3.20;;;24.30;76.00;;;;;;5103396;28;20452;-80
2023/07/12 00:36:38;;;;;;;5.70;2.67;;;24.30;76.00;;;;;;5096952;28;20483;-80
2023/07/12 00:39:11;;;;;;;8.43;3.23;;;24.40;75.80;;;;;;5098831;28;20472;-81
2023/07/12 00:41:55;;;;;;;6.30;3.03;;;24.40;75.80;;;;;;5102819;28;20887;-81
2023/07/12 00:44:26;;;;;;;9.17;3.43;;;24.50;75.80;;;;;;5114675;27;20478;-81
2023/07/12 00:46:57;;;;;;;6.43;3.50;;;24.50;75.70;;;;;;5105131;28;20456;-82
2023/07/12 00:52:13;;;;;;;8.57;3.50;;;24.50;75.90;;;;;;5104514;28;20447;-81
2023/07/12 00:54:53;;;;;;;5.87;3.60;;;24.60;75.80;;;;;;5096328;28;20455;-82
2023/07/12 00:57:22;;;;;;;7.30;3.20;;;24.60;75.80;;;;;;5103246;27;20459;-81
2023/07/12 00:59:52;;;;;;;6.87;3.67;;;24.60;75.70;;;;;;5101520;28;21196;-81
2023/07/12 01:02:23;;;;;;;8.60;3.63;;;24.70;75.70;;;;;;5103249;27;20486;-81
2023/07/12 01:04:57;;;;;;;9.37;4.13;;;24.70;75.70;;;;;;5104029;28;20452;-81
2023/07/12 01:07:30;;;;;;;9.30;4.10;;;24.70;75.70;;;;;;5102090;28;20448;-81
2023/07/12 01:10:04;;;;;;;9.23;4.47;;;24.70;75.80;;;;;;5100472;28;20456;-82
2023/07/12 01:12:32;;;;;;;9.10;4.90;;;24.70;75.80;;;;;;5105052;28;20459;-82
2023/07/12 01:15:01;;;;;;;8.27;4.60;;;24.60;75.90;;;;;;5101761;28;20444;-83
2023/07/12 01:17:29;;;;;;;7.90;4.80;;;24.60;76.00;;;;;;5099537;28;20460;-83
2023/07/12 01:19:58;;;;;;;6.87;4.30;;;24.50;76.00;;;;;;5099392;28;20989;-82
2023/07/12 01:22:27;;;;;;;8.57;4.50;;;24.50;76.10;;;;;;5102373;28;20509;-82
2023/07/12 01:24:56;;;;;;;8.77;5.07;;;24.50;76.20;;;;;;5099079;28;21200;-82
2023/07/12 01:27:27;;;;;;;9.67;5.03;;;24.60;76.10;;;;;;5097756;28;20444;-82
2023/07/12 01:29:55;;;;;;;11.77;4.20;;;24.60;76.10;;;;;;5101642;28;21233;-82
2023/07/12 01:32:23;;;;;;;7.87;3.80;;;24.50;76.10;;;;;;5101306;28;20473;-83
2023/07/12 01:34:57;;;;;;;7.97;4.50;;;24.50;76.10;;;;;;5102476;28;20528;-82
2023/07/12 01:37:27;;;;;;;6.47;3.90;;;24.50;76.10;;;;;;5097900;28;20530;-81
2023/07/12 01:39:55;;;;;;;8.37;4.70;;;24.50;76.10;;;;;;5105514;28;20460;-81
2023/07/12 01:46:10;;;;;;;9.60;4.70;;;24.60;76.10;;;;;;5100498;28;20498;-82
2023/07/12 01:48:38;;;;;;;7.77;3.90;;;24.60;76.00;;;;;;5101799;28;20459;-83
2023/07/12 01:51:06;;;;;;;7.40;4.30;;;24.50;75.90;;;;;;5096317;28;21047;-82
2023/07/12 01:53:36;;;;;;;8.23;4.33;;;24.50;75.90;;;;;;5103790;28;20468;-83
2023/07/12 01:56:06;;;;;;;11.67;4.20;;;24.50;75.90;;;;;;5101330;28;20559;-82
2023/07/12 01:58:34;;;;;;;10.07;4.40;;;24.40;75.90;;;;;;5095441;28;20460;-82
2023/07/12 02:01:02;;;;;;;12.20;4.80;;;24.40;75.90;;;;;;5094405;28;20499;-83
2023/07/12 02:03:34;;;;;;;10.73;4.50;;;24.40;76.00;;;;;;5099799;28;20999;-82
2023/07/12 02:06:02;;;;;;;6.53;3.20;;;24.40;76.10;;;;;;5104388;28;20532;-82
2023/07/12 02:08:30;;;;;;;11.90;3.87;;;24.40;76.10;;;;;;5105303;28;20456;-81
2023/07/12 02:11:00;;;;;;;7.37;3.80;;;24.40;76.00;;;;;;5105856;28;20467;-80
2023/07/12 02:13:28;;;;;;;12.93;3.67;;;24.40;76.00;;;;;;5105439;28;20525;-82
2023/07/12 02:15:56;;;;;;;12.03;4.20;;;24.40;76.00;;;;;;5109440;28;20455;-81
2023/07/12 02:18:24;;;;;;;5.33;3.40;;;24.50;76.00;;;;;;5104231;28;20532;-81
2023/07/12 02:20:52;;;;;;;7.10;3.43;;;24.50;75.80;;;;;;5104154;28;20459;-82
2023/07/12 02:23:20;;;;;;;13.83;3.80;;;24.50;75.80;;;;;;5109594;28;20468;-82
2023/07/12 02:25:49;;;;;;;11.43;3.60;;;24.40;75.70;;;;;;5106575;28;20474;-80
2023/07/12 02:28:18;;;;;;;8.50;3.70;;;24.40;75.70;;;;;;5108286;28;20447;-80
2023/07/12 02:30:46;;;;;;;13.47;3.60;;;24.40;75.90;;;;;;5105659;28;20556;-81
2023/07/12 02:33:14;;;;;;;11.00;4.13;;;24.40;75.80;;;;;;5108396;28;20606;-81
2023/07/12 02:35:42;;;;;;;7.40;3.37;;;24.40;75.90;;;;;;5107410;28;20456;-81
2023/07/12 02:38:10;;;;;;;8.93;3.77;;;24.50;75.90;;;;;;5110870;27;20451;-81
2023/07/12 02:40:38;;;;;;;9.13;4.00;;;24.50;75.80;;;;;;5107538;28;20562;-80
2023/07/12 02:43:07;;;;;;;6.53;3.10;;;24.50;75.80;;;;;;5106647;28;20843;-81
2023/07/12 02:45:49;;;;;;;18.83;4.20;;;24.50;75.70;;;;;;5110885;28;20537;-81
2023/07/12 02:48:17;;;;;;;13.80;4.20;;;24.50;75.70;;;;;;5110597;28;20452;-81
2023/07/12 02:50:47;;;;;;;12.43;4.57;;;24.50;75.70;;;;;;5107347;28;20458;-82
2023/07/12 02:53:16;;;;;;;11.23;4.03;;;24.50;75.70;;;;;;5103348;28;20456;-81
2023/07/12 02:55:44;;;;;;;6.47;3.30;;;24.50;75.70;;;;;;5109311;27;20461;-81
2023/07/12 02:58:12;;;;;;;8.80;4.17;;;24.50;75.70;;;;;;5103301;27;20991;-81
2023/07/12 03:00:41;;;;;;;8.67;3.73;;;24.50;75.60;;;;;;5103247;28;20502;-81
2023/07/12 03:03:09;;;;;;;8.80;3.97;;;24.50;75.70;;;;;;5106451;28;20452;-82
2023/07/12 03:05:38;;;;;;;14.13;4.40;;;24.50;75.70;;;;;;5102058;28;20503;-81
2023/07/12 03:08:06;;;;;;;8.47;3.70;;;24.50;75.60;;;;;;5106966;28;20475;-81
2023/07/12 03:10:37;;;;;;;10.70;4.37;;;24.50;75.50;;;;;;5107471;28;20449;-81
2023/07/12 03:13:05;;;;;;;9.30;4.00;;;24.50;75.50;;;;;;5101023;28;20456;-81
2023/07/12 03:15:37;;;;;;;14.00;4.43;;;24.50;75.50;;;;;;5104564;28;20452;-81
2023/07/12 03:18:06;;;;;;;14.77;4.67;;;24.40;75.50;;;;;;5101082;28;20871;-80
2023/07/12 03:20:34;;;;;;;13.40;4.20;;;24.40;75.50;;;;;;5104973;28;20654;-82
2023/07/12 03:23:02;;;;;;;13.67;3.63;;;24.40;75.50;;;;;;5102098;28;20827;-81
2023/07/12 03:25:30;;;;;;;12.63;4.20;;;24.30;75.50;;;;;;5107785;28;20480;-82
2023/07/12 03:28:00;;;;;;;15.07;4.73;;;24.30;75.60;;;;;;5105954;28;20965;-81
2023/07/12 03:30:28;;;;;;;15.50;4.53;;;24.20;75.70;;;;;;5106866;28;20556;-82
2023/07/12 03:32:56;;;;;;;16.80;4.27;;;24.20;75.80;;;;;;5104960;28;20460;-81
2023/07/12 03:35:27;;;;;;;18.70;4.57;;;24.20;75.90;;;;;;5109017;28;20818;-82
2023/07/12 03:37:55;;;;;;;19.23;5.03;;;24.20;75.90;;;;;;5101659;28;21001;-82
2023/07/12 03:40:23;;;;;;;15.30;4.20;;;24.20;75.90;;;;;;5122111;27;20544;-81
2023/07/12 03:42:51;;;;;;;17.30;4.30;;;24.20;76.00;;;;;;5101414;28;20456;-80
2023/07/12 03:45:19;;;;;;;19.93;4.80;;;24.20;76.00;;;;;;5106579;27;20539;-81
2023/07/12 03:47:47;;;;;;;19.50;4.80;;;24.20;76.10;;;;;;5097383;28;20539;-80
2023/07/12 03:50:15;;;;;;;11.30;4.33;;;24.10;76.20;;;;;;5101627;28;20487;-80
2023/07/12 03:52:45;;;;;;;9.90;3.87;;;24.10;76.20;;;;;;5106044;28;20531;-81
2023/07/12 03:55:13;;;;;;;11.20;4.20;;;24.10;76.20;;;;;;5104816;27;20437;-81
2023/07/12 03:57:41;;;;;;;11.87;4.30;;;24.10;76.30;;;;;;5105520;28;20511;-81
2023/07/12 04:00:12;;;;;;;9.23;4.27;;;24.10;76.40;;;;;;5106083;28;20837;-80
2023/07/12 04:02:41;;;;;;;12.57;3.90;;;24.10;76.30;;;;;;5107363;27;20818;-80
2023/07/12 04:05:09;;;;;;;10.53;3.90;;;24.10;76.40;;;;;;5102673;28;20498;-79
2023/07/12 04:07:37;;;;;;;16.57;4.00;;;24.10;76.50;;;;;;5101134;28;20483;-81
2023/07/12 04:10:08;;;;;;;15.37;4.40;;;24.10;76.50;;;;;;5107692;28;20444;-81
2023/07/12 04:12:39;;;;;;;14.97;4.30;;;24.10;76.60;;;;;;5096878;28;20483;-82
2023/07/12 04:15:11;;;;;;;13.83;3.70;;;24.10;76.60;;;;;;5099940;28;20986;-80
2023/07/12 04:17:40;;;;;;;9.77;3.93;;;24.20;76.50;;;;;;5102721;28;20461;-81
2023/07/12 04:20:10;;;;;;;11.80;4.00;;;24.10;76.60;;;;;;5101216;28;20461;-82
2023/07/12 04:22:40;;;;;;;10.27;3.90;;;24.10;76.60;;;;;;5102052;28;21312;-81
2023/07/12 04:25:13;;;;;;;19.80;4.50;;;24.10;76.60;;;;;;5121237;27;20479;-81
2023/07/12 04:27:42;;;;;;;11.83;3.87;;;24.10;76.60;;;;;;5105268;28;20478;-81
2023/07/12 04:30:13;;;;;;;19.70;4.50;;;24.10;76.70;;;;;;5100217;27;20555;-81
2023/07/12 04:32:43;;;;;;;14.93;4.20;;;24.20;76.70;;;;;;5103266;28;20852;-82
2023/07/12 04:35:11;;;;;;;9.53;3.70;;;24.20;76.80;;;;;;5102392;28;20452;-81
2023/07/12 04:37:44;;;;;;;15.57;4.03;;;24.20;76.60;;;;;;5101075;28;20546;-80
2023/07/12 04:40:14;;;;;;;11.83;3.63;;;24.30;76.60;;;;;;5106288;28;20489;-81
2023/07/12 04:42:43;;;;;;;9.70;3.93;;;24.30;76.60;;;;;;5099069;28;20567;-81
2023/07/12 04:45:13;;;;;;;11.63;3.47;;;24.40;76.40;;;;;;5104812;28;20468;-81
2023/07/12 04:47:41;;;;;;;20.80;4.00;;;24.40;76.30;;;;;;5106072;28;20542;-80
2023/07/12 04:50:11;;;;;;;12.60;3.13;;;24.40;76.30;;;;;;5108761;28;20457;-81
2023/07/12 04:52:39;;;;;;;18.87;4.30;;;24.40;76.40;;;;;;5107027;28;20455;-82
2023/07/12 04:55:23;;;;;;;25.83;4.77;;;24.50;76.30;;;;;;5106371;28;21028;-81
2023/07/12 04:57:51;;;;;;;8.13;3.10;;;24.50;76.30;;;;;;5107383;28;20551;-82
2023/07/12 05:00:19;;;;;;;11.63;4.20;;;24.50;76.30;;;;;;5102086;28;20462;-81
2023/07/12 05:02:47;;;;;;;13.93;4.00;;;24.60;76.40;;;;;;5107357;28;20488;-81
2023/07/12 05:05:16;;;;;;;12.80;4.60;;;24.70;76.50;;;;;;5105056;28;20574;-81
2023/07/12 05:07:44;;;;;;;12.50;3.70;;;24.80;76.30;;;;;;5101661;28;20547;-81
2023/07/12 05:10:12;;;;;;;11.37;3.77;;;24.90;76.20;;;;;;5109368;28;20846;-82
2023/07/12 05:12:42;;;;;;;10.53;3.37;;;24.90;76.00;;;;;;5105724;28;20909;-80
2023/07/12 05:15:11;;;;;;;16.60;3.47;;;25.00;75.90;;;;;;5107948;28;20873;-81
2023/07/12 05:17:40;;;;;;;10.77;3.10;;;25.00;75.80;;;;;;5106561;27;20453;-82
2023/07/12 05:20:12;;;;;;;11.70;3.73;;;24.90;75.80;;;;;;5105473;28;20460;-81
2023/07/12 05:22:41;;;;;;;11.40;3.57;;;24.90;75.80;;;;;;5094380;28;20460;-80
2023/07/12 05:25:10;;;;;;;21.30;4.67;;;24.90;75.80;;;;;;5106398;27;20517;-79
2023/07/12 05:27:39;;;;;;;9.00;3.27;;;24.90;75.80;;;;;;5103783;28;20506;-82
2023/07/12 05:30:09;;;;;;;10.87;3.70;;;24.90;75.70;;;;;;5101047;28;20484;-80
2023/07/12 05:32:44;;;;;;;10.63;3.83;;;24.90;75.70;;;;;;5105496;27;20471;-81
2023/07/12 05:35:12;;;;;;;15.10;4.50;;;24.90;75.80;;;;;;5101798;28;20451;-80
2023/07/12 05:37:40;;;;;;;13.90;3.73;;;24.90;75.90;;;;;;5102284;28;20505;-81
2023/07/12 05:40:10;;;;;;;10.67;3.87;;;24.90;75.90;;;;;;5098527;28;20496;-80
2023/07/12 05:42:41;;;;;;;10.33;4.17;;;25.10;76.00;;;;;;5103593;28;20456;-81
2023/07/12 05:45:13;;;;;;;10.47;4.20;;;25.20;75.80;;;;;;5101882;28;20542;-80
2023/07/12 05:47:45;;;;;;;9.60;4.03;;;25.50;75.60;;;;;;5103998;28;20483;-80
2023/07/12 05:50:15;;;;;;;16.50;3.97;;;25.70;75.30;;;;;;5098581;28;20468;-81
2023/07/12 05:52:43;;;;;;;11.97;4.47;;;25.90;74.90;;;;;;5099804;28;20485;-82
2023/07/12 05:55:17;;;;;;;9.80;3.73;;;26.00;74.70;;;;;;5102069;28;20448;-79
2023/07/12 05:57:45;;;;;;;10.33;4.20;;;26.00;74.50;;;;;;5100903;28;20461;-80
2023/07/12 06:00:17;;;;;;;13.93;4.40;;;26.10;74.40;;;;;;5103174;28;20452;-81
2023/07/12 06:02:45;;;;;;;11.40;5.00;;;26.10;74.20;;;;;;5100806;28;20456;-81
2023/07/12 06:05:13;;;;;;;11.43;4.60;;;26.10;74.20;;;;;;5104736;28;20812;-80
2023/07/12 06:07:42;;;;;;;9.37;4.30;;;26.10;74.30;;;;;;5101904;28;20460;-81
2023/07/12 06:10:11;;;;;;;7.77;3.80;;;26.10;74.30;;;;;;5107569;28;20505;-81
2023/07/12 06:12:40;;;;;;;10.40;4.47;;;26.10;74.00;;;;;;5096845;28;20506;-81
2023/07/12 06:15:10;;;;;;;14.30;4.13;;;26.00;74.00;;;;;;5112010;28;20463;-81
2023/07/12 06:17:39;;;;;;;11.00;4.53;;;25.80;74.20;;;;;;5107774;28;21249;-80
2023/07/12 06:20:12;;;;;;;12.83;4.80;;;25.80;74.40;;;;;;5099844;28;20470;-81
2023/07/12 06:22:40;;;;;;;8.10;4.40;;;25.70;74.50;;;;;;5103673;28;20459;-81
2023/07/12 06:25:10;;;;;;;11.30;4.83;;;25.60;74.60;;;;;;5086694;28;20456;-81
2023/07/12 06:27:56;;;;;;;9.83;4.10;;;25.50;74.70;;;;;;5098442;28;20460;-81
2023/07/12 06:30:24;;;;;;;9.77;5.30;;;25.40;74.80;;;;;;5089764;28;20491;-81
2023/07/12 06:32:53;;;;;;;11.07;5.13;;;25.30;75.00;;;;;;5102011;28;20504;-82
2023/07/12 06:35:21;;;;;;;10.80;4.60;;;25.30;75.20;;;;;;5105083;28;20479;-81
2023/07/12 06:37:49;;;;;;;11.70;6.13;;;25.30;75.40;;;;;;5113785;28;20559;-81
2023/07/12 06:40:20;;;;;;;11.73;4.60;;;25.20;75.50;;;;;;5103070;28;20448;-81
2023/07/12 06:42:48;;;;;;;13.00;5.03;;;25.20;75.60;;;;;;5101815;28;20992;-81
2023/07/12 06:45:17;;;;;;;9.23;5.30;;;25.20;75.80;;;;;;5102360;28;20455;-81
2023/07/12 06:47:45;;;;;;;10.93;5.60;;;25.20;75.90;;;;;;5101187;28;20546;-81
2023/07/12 06:50:16;;;;;;;8.10;4.90;;;25.20;75.90;;;;;;5102388;28;20460;-81
2023/07/12 06:52:45;;;;;;;12.90;5.80;;;25.20;76.00;;;;;;5106065;28;20453;-80
2023/07/12 06:55:13;;;;;;;9.13;5.00;;;25.20;76.10;;;;;;5106461;28;20534;-81
2023/07/12 06:57:41;;;;;;;10.23;5.33;;;25.20;76.10;;;;;;5100792;28;20460;-81
2023/07/12 07:00:11;;;;;;;11.37;5.93;;;25.20;76.20;;;;;;5102166;28;20444;-81
2023/07/12 07:02:40;;;;;;;13.47;5.77;;;25.20;76.30;;;;;;5108134;28;20502;-81
2023/07/12 07:05:08;;;;;;;14.50;6.00;;;25.20;76.30;;;;;;5110092;28;20509;-81
2023/07/12 07:07:41;;;;;;;10.60;6.43;;;25.30;76.40;;;;;;5108097;28;20473;-81
2023/07/12 07:10:10;;;;;;;13.73;6.30;;;25.30;76.40;;;;;;5110468;28;20490;-81
2023/07/12 07:12:38;;;;;;;15.60;6.10;;;25.30;76.50;;;;;;5109364;28;20950;-79
2023/07/12 07:15:07;;;;;;;11.00;6.30;;;25.40;76.50;;;;;;5111837;28;20462;-81
2023/07/12 07:17:38;;;;;;;15.40;6.47;;;25.50;76.50;;;;;;5105781;28;21001;-81
2023/07/12 07:20:09;;;;;;;9.60;6.10;;;25.60;76.30;;;;;;5104400;28;20448;-81
2023/07/12 07:22:37;;;;;;;14.47;6.90;;;25.70;76.20;;;;;;5107691;28;20523;-81
2023/07/12 07:25:08;;;;;;;13.60;7.00;;;25.70;76.10;;;;;;5103075;28;20445;-81
2023/07/12 07:27:48;;;;;;;10.77;7.00;;;25.80;76.00;;;;;;5105514;28;20479;-81
2023/07/12 07:30:16;;;;;;;15.80;7.20;;;25.80;75.90;;;;;;5105521;28;20502;-81
2023/07/12 07:32:45;;;;;;;15.03;7.57;;;25.90;75.90;;;;;;5108927;28;20475;-81
2023/07/12 07:35:13;;;;;;;11.23;7.33;;;25.90;75.80;;;;;;5109919;28;20448;-81
2023/07/12 07:37:42;;;;;;;11.73;6.50;;;25.90;75.70;;;;;;5103180;27;20540;-81
2023/07/12 07:40:12;;;;;;;11.63;7.10;;;26.00;75.70;;;;;;5107027;28;20441;-81
2023/07/12 07:42:41;;;;;;;13.30;8.03;;;26.00;75.60;;;;;;5107614;28;20476;-81
2023/07/12 07:45:09;;;;;;;12.23;7.47;;;26.00;75.70;;;;;;5107638;28;20655;-81
2023/07/12 07:47:37;;;;;;;10.53;6.80;;;26.10;75.60;;;;;;5105979;28;21005;-81
2023/07/12 07:50:07;;;;;;;11.10;7.57;;;26.10;75.50;;;;;;5104501;28;20466;-81
2023/07/12 07:52:35;;;;;;;12.63;7.43;;;26.20;75.40;;;;;;5107423;27;20448;-81
2023/07/12 07:55:05;;;;;;;14.30;7.67;;;26.30;75.30;;;;;;5110179;28;20459;-81
2023/07/12 07:57:35;;;;;;;12.50;8.47;;;26.30;75.00;;;;;;5107890;28;20448;-82
2023/07/12 08:00:07;;;;;;;13.23;7.87;;;26.30;74.80;;;;;;5116410;27;20498;-81
2023/07/12 08:02:39;;;;;;;11.47;7.33;;;26.40;74.70;;;;;;5107940;28;21218;-82
2023/07/12 08:05:08;;;;;;;17.57;9.30;;;26.40;74.60;;;;;;5101989;28;20455;-81
2023/07/12 08:07:40;;;;;;;17.53;9.30;;;26.50;74.50;;;;;;5103563;28;20476;-81
2023/07/12 08:10:11;;;;;;;13.80;8.77;;;26.50;74.00;;;;;;5102970;28;20495;-81
2023/07/12 08:12:40;;;;;;;10.73;8.53;;;26.40;73.90;;;;;;5106109;28;20468;-81
2023/07/12 08:15:09;;;;;;;14.13;8.60;;;26.20;74.00;;;;;;5123922;27;20460;-82
2023/07/12 08:17:40;;;;;;;16.57;8.77;;;26.20;74.00;;;;;;5102729;28;21014;-81
2023/07/12 08:20:09;;;;;;;11.73;8.23;;;26.10;74.10;;;;;;5102975;28;20444;-81
2023/07/12 08:22:37;;;;;;;14.00;8.70;;;26.10;74.20;;;;;;5100229;28;20460;-81
2023/07/12 08:25:06;;;;;;;13.10;9.00;;;26.20;74.10;;;;;;5105266;28;20535;-81
2023/07/12 08:27:34;;;;;;;14.00;8.63;;;26.20;74.10;;;;;;5102390;28;20468;-81
2023/07/12 08:30:06;;;;;;;14.43;8.50;;;26.20;74.00;;;;;;5101534;28;20825;-81
2023/07/12 08:32:35;;;;;;;11.33;7.97;;;26.10;73.80;;;;;;5101333;28;20878;-81
2023/07/12 08:35:05;;;;;;;14.20;8.57;;;26.20;73.70;;;;;;5110083;28;20531;-81
2023/07/12 08:37:34;;;;;;;16.80;8.90;;;26.20;73.60;;;;;;5106165;27;20996;-81
2023/07/12 08:40:03;;;;;;;17.63;8.70;;;26.30;73.60;;;;;;5101573;28;20455;-81
2023/07/12 08:42:38;;;;;;;14.77;9.43;;;26.30;73.70;;;;;;5107575;28;20522;-81
2023/07/12 08:45:20;;;;;;;12.50;8.33;;;26.40;73.30;;;;;;5106899;28;20462;-81
2023/07/12 08:47:54;;;;;;;12.93;9.13;;;26.50;72.80;;;;;;5103878;28;20559;-81
2023/07/12 08:50:22;;;;;;;14.70;8.57;;;26.40;72.50;;;;;;5103122;28;20460;-81
2023/07/12 08:52:50;;;;;;;13.30;8.10;;;26.50;72.20;;;;;;5101853;28;20457;-82
2023/07/12 08:55:20;;;;;;;15.13;9.07;;;26.60;72.30;;;;;;5103490;28;21003;-81
2023/07/12 08:57:54;;;;;;;12.53;8.43;;;26.60;72.20;;;;;;5101744;28;20978;-81
2023/07/12 09:00:27;;;;;;;16.33;8.67;;;26.70;72.00;;;;;;5104803;28;20482;-81
2023/07/12 09:02:56;;;;;;;13.20;8.57;;;26.80;71.80;;;;;;5104257;28;20873;-82
2023/07/12 09:05:25;;;;;;;12.90;8.77;;;26.80;71.70;;;;;;5105484;28;20440;-81
2023/07/12 09:07:57;;;;;;;13.03;8.00;;;26.80;71.60;;;;;;5104062;28;21072;-81
2023/07/12 09:10:33;;;;;;;15.53;7.90;;;26.90;71.50;;;;;;5102120;28;20455;-81
2023/07/12 09:13:02;;;;;;;17.90;8.33;;;27.00;71.00;;;;;;5104034;28;20459;-80
2023/07/12 09:15:37;;;;;;;13.27;8.20;;;27.00;70.60;;;;;;5104767;28;21237;-81
2023/07/12 09:18:08;;;;;;;10.40;8.00;;;27.10;70.30;;;;;;5102295;28;20920;-81
2023/07/12 09:20:41;;;;;;;17.57;8.53;;;27.20;70.10;;;;;;5105710;28;20444;-82
2023/07/12 09:23:13;;;;;;;13.27;8.63;;;27.30;69.60;;;;;;5098791;28;20495;-81
2023/07/12 09:25:47;;;;;;;12.37;8.03;;;27.40;69.30;;;;;;5106513;28;20478;-81
2023/07/12 09:28:15;;;;;;;11.60;7.77;;;27.40;68.80;;;;;;5100720;28;20472;-81
2023/07/12 09:30:52;;;;;;;12.10;7.77;;;27.50;68.50;;;;;;5093675;28;20536;-81
2023/07/12 09:33:25;;;;;;;12.77;8.53;;;27.50;68.10;;;;;;5103300;28;20554;-81
2023/07/12 09:35:55;;;;;;;14.90;8.53;;;27.60;68.00;;;;;;5102312;28;20906;-81
2023/07/12 09:38:25;;;;;;;15.40;8.60;;;27.60;67.60;;;;;;5102062;28;20539;-81
2023/07/12 09:41:09;;;;;;;16.30;7.83;;;27.40;67.20;;;;;;5101921;28;20527;-81
2023/07/12 09:43:39;;;;;;;11.50;8.33;;;27.40;67.20;;;;;;5097101;28;20957;-81
2023/07/12 09:46:18;;;;;;;10.20;7.50;;;27.40;67.30;;;;;;5101695;28;20489;-82
2023/07/12 09:48:51;;;;;;;14.03;8.17;;;27.40;67.00;;;;;;5101817;28;20563;-81
2023/07/12 09:51:29;;;;;;;11.60;7.70;;;27.30;66.90;;;;;;5105021;28;21099;-82
2023/07/12 09:54:06;;;;;;;12.17;9.67;;;27.30;66.90;;;;;;5095404;28;21025;-81
2023/07/12 09:56:48;;;;;;;14.33;8.60;;;27.20;66.90;;;;;;5098663;28;20944;-81
2023/07/12 09:59:29;;;;;;;11.43;8.40;;;27.10;67.00;;;;;;5102106;28;20461;-82
2023/07/12 10:02:16;;;;;;;14.00;9.20;;;27.10;67.10;;;;;;5114211;28;20898;-81
2023/07/12 10:04:49;;;;;;;15.97;9.40;;;27.00;67.10;;;;;;5098342;28;20527;-81
2023/07/12 10:07:28;;;;;;;12.13;8.80;;;27.00;67.20;;;;;;5098741;28;21048;-81
2023/07/12 10:09:57;;;;;;;12.67;9.13;;;26.90;67.30;;;;;;5100561;28;20960;-81
2023/07/12 10:12:33;;;;;;;11.13;8.73;;;27.00;67.30;;;;;;5105317;28;20463;-81
2023/07/12 10:15:04;;;;;;;14.17;8.67;;;26.90;67.30;;;;;;5105110;28;20516;-80
2023/07/12 10:17:37;;;;;;;12.27;8.90;;;27.00;67.20;;;;;;5100382;28;20549;-80
2023/07/12 10:20:19;;;;;;;10.87;8.37;;;26.90;67.20;;;;;;5098144;28;20447;-81
2023/07/12 10:22:59;;;;;;;12.13;8.80;;;26.90;67.20;;;;;;5103644;28;20472;-81
2023/07/12 10:25:48;;;;;;;12.27;9.00;;;26.90;67.20;;;;;;5101836;28;20470;-81
2023/07/12 10:28:25;;;;;;;13.57;8.90;;;26.90;67.20;;;;;;5104281;28;20473;-80
2023/07/12 10:31:01;;;;;;;13.30;8.60;;;27.00;67.10;;;;;;5102102;28;20478;-81
2023/07/12 10:33:36;;;;;;;12.30;8.60;;;27.00;67.10;;;;;;5095099;28;20463;-80
2023/07/12 10:36:16;;;;;;;15.23;9.40;;;27.10;67.10;;;;;;5111449;28;20439;-80
2023/07/12 10:38:50;;;;;;;12.70;8.40;;;27.10;67.00;;;;;;5113796;28;20463;-80
2023/07/12 10:41:24;;;;;;;13.63;9.57;;;27.10;67.00;;;;;;5109400;28;20448;-81
2023/07/12 10:44:12;;;;;;;16.43;8.93;;;27.20;66.90;;;;;;5106099;28;20506;-81
2023/07/12 10:46:46;;;;;;;12.57;8.97;;;27.20;66.90;;;;;;5121941;27;20831;-81
2023/07/12 10:49:19;;;;;;;15.50;9.00;;;27.30;66.80;;;;;;5100617;28;20468;-81
2023/07/12 10:52:15;;;;;;;11.20;9.00;;;27.30;66.90;;;;;;5105619;28;21041;-81
2023/07/12 10:54:51;;;;;;;14.57;9.63;;;27.40;66.80;;;;;;5105528;28;20455;-81
2023/07/12 10:57:28;;;;;;;13.73;8.77;;;27.50;66.80;;;;;;5105047;28;21017;-81
2023/07/12 11:00:02;;;;;;;18.47;8.50;;;27.50;66.50;;;;;;5110192;28;20804;-81
2023/07/12 11:02:33;;;;;;;12.30;8.57;;;27.60;66.10;;;;;;5104569;27;20511;-80
2023/07/12 11:05:05;;;;;;;11.73;8.33;;;27.70;65.90;;;;;;5107279;28;20451;-81
2023/07/12 11:07:37;;;;;;;17.03;8.60;;;27.70;66.00;;;;;;5107604;28;20874;-80
2023/07/12 11:10:24;;;;;;;12.97;7.53;;;27.70;66.00;;;;;;5103034;28;20491;-81
2023/07/12 11:13:11;;;;;;;16.03;9.13;;;27.80;65.60;;;;;;5107793;27;20462;-81
2023/07/12 11:16:02;;;;;;;11.10;8.10;;;27.90;65.40;;;;;;5110766;28;20518;-81
2023/07/12 11:18:35;;;;;;;9.60;5.83;;;27.90;64.90;;;;;;5098060;28;20453;-81
2023/07/12 11:21:07;;;;;;;14.53;7.47;;;28.00;64.10;;;;;;5108894;28;20458;-81
2023/07/12 11:23:48;;;;;;;9.47;6.80;;;28.00;64.30;;;;;;5104379;28;20453;-82
2023/07/12 11:26:25;;;;;;;14.50;7.30;;;28.10;64.00;;;;;;5103063;28;20550;-81
2023/07/12 11:28:54;;;;;;;11.97;7.00;;;28.10;64.10;;;;;;5106478;28;20492;-82
2023/07/12 11:31:32;;;;;;;11.93;6.20;;;28.20;63.70;;;;;;5105372;28;20459;-81
2023/07/12 11:34:14;;;;;;;11.50;5.37;;;28.20;63.30;;;;;;5123637;27;20478;-80
2023/07/12 11:36:49;;;;;;;10.70;5.70;;;28.30;63.10;;;;;;5106774;28;20558;-80
2023/07/12 11:39:20;;;;;;;8.50;5.50;;;28.40;62.60;;;;;;5100356;28;20447;-80
2023/07/12 11:41:57;;;;;;;8.90;5.40;;;28.40;62.20;;;;;;5101105;28;20451;-81
2023/07/12 11:44:26;;;;;;;9.17;5.20;;;28.40;61.80;;;;;;5102594;28;20498;-80
2023/07/12 11:46:54;;;;;;;9.20;4.97;;;28.40;61.70;;;;;;5104553;28;21029;-80
2023/07/12 11:49:29;;;;;;;9.50;4.80;;;28.40;61.40;;;;;;5107155;28;20464;-80
2023/07/12 11:52:04;;;;;;;9.33;4.80;;;28.50;61.20;;;;;;5105117;28;20547;-80
2023/07/12 11:54:36;;;;;;;11.47;5.30;;;28.50;60.80;;;;;;5110331;28;20539;-80
2023/07/12 11:57:09;;;;;;;8.90;4.90;;;28.40;60.60;;;;;;5101674;28;20962;-80
2023/07/12 11:59:39;;;;;;;7.50;4.50;;;28.40;60.40;;;;;;5105064;28;20452;-81
2023/07/12 12:02:14;;;;;;;11.43;4.80;;;28.50;60.40;;;;;;5107565;28;20483;-80
2023/07/12 12:04:42;;;;;;;7.53;4.57;;;28.50;60.20;;;;;;5109144;28;20455;-80
2023/07/12 12:07:21;;;;;;;8.60;4.87;;;28.50;60.10;;;;;;5103281;28;20505;-80
2023/07/12 12:09:49;;;;;;;6.90;4.67;;;28.40;59.70;;;;;;5103433;28;20488;-79
2023/07/12 12:12:20;;;;;;;7.67;4.90;;;28.40;59.50;;;;;;5104502;28;20583;-80
2023/07/12 12:14:50;;;;;;;9.60;5.30;;;28.40;59.50;;;;;;5108572;28;20982;-81
2023/07/12 12:17:26;;;;;;;9.03;4.43;;;28.30;59.70;;;;;;5102021;28;21269;-80
2023/07/12 12:20:05;;;;;;;8.27;5.20;;;28.40;59.90;;;;;;5103613;28;20444;-80
2023/07/12 12:22:40;;;;;;;9.60;4.50;;;28.50;59.80;;;;;;5108813;28;20489;-80
2023/07/12 12:25:17;;;;;;;8.73;4.67;;;28.60;59.80;;;;;;5118453;27;20480;-80
2023/07/12 12:27:46;;;;;;;9.50;4.67;;;28.60;59.90;;;;;;5101602;28;20542;-81
2023/07/12 12:30:20;;;;;;;9.07;5.07;;;28.70;60.00;;;;;;5104032;28;20472;-80
2023/07/12 12:33:01;;;;;;;11.40;4.80;;;28.80;59.50;;;;;;5106980;28;20580;-81
2023/07/12 12:35:29;;;;;;;8.57;5.00;;;28.80;59.30;;;;;;5103949;28;20448;-81
2023/07/12 12:38:00;;;;;;;9.53;4.33;;;28.80;59.20;;;;;;5098622;28;20489;-80
2023/07/12 12:40:35;;;;;;;8.40;4.90;;;28.80;59.20;;;;;;5099864;28;20440;-81
2023/07/12 12:43:06;;;;;;;10.30;5.23;;;28.70;59.10;;;;;;5108325;28;20913;-80
2023/07/12 12:45:36;;;;;;;12.03;5.03;;;28.80;59.20;;;;;;5106074;28;20543;-80
2023/07/12 12:48:10;;;;;;;8.67;4.80;;;28.70;59.30;;;;;;5097804;28;20473;-80
2023/07/12 12:50:41;;;;;;;10.33;4.97;;;28.70;59.30;;;;;;5105203;28;20483;-81
2023/07/12 12:53:14;;;;;;;10.13;5.43;;;28.70;59.30;;;;;;5105716;28;20546;-80
2023/07/12 12:55:47;;;;;;;10.03;4.23;;;28.70;59.30;;;;;;5103217;28;20454;-80
2023/07/12 12:58:18;;;;;;;8.97;4.40;;;28.60;59.10;;;;;;5100938;28;21025;-80
2023/07/12 13:01:06;;;;;;;9.03;5.43;;;28.60;59.10;;;;;;5101401;28;20475;-80
2023/07/12 13:03:37;;;;;;;9.90;4.20;;;28.70;59.10;;;;;;5099158;28;20448;-80
2023/07/12 13:06:17;;;;;;;9.13;5.07;;;28.70;59.00;;;;;;5106976;28;20438;-80
2023/07/12 13:08:48;;;;;;;8.87;4.60;;;28.70;58.80;;;;;;5106791;28;20500;-80